Overview Statistics Trail Chart Weather Telemetry Raw packets
 

This is the latest recevied weather packets stored in our database for station/object PY2WOA-13. If no packets are shown the sender has not sent any weather packets the latest 10 day(s).

<< 4 5 6 7 8 9 10 >>
Time Temp. Humidity Pressure Rain* Wind** Luminosity Snow
1788410104 17.78° C 83% 1017.6 hPa - - - -
1788408304 18.33° C 76% 1017.8 hPa - - - -
1788406504 19.44° C 72% 1017.6 hPa - - - -
1788404704 19.44° C 69% 1017.8 hPa - - - -
1788402904 20° C 68% 1017.7 hPa - - - -
1788401103 20.56° C 64% 1017.7 hPa - - - -
1788399303 21.11° C 65% 1017.6 hPa - - - -
1788397504 21.11° C 62% 1017.7 hPa - - - -
1788395704 21.67° C 59% 1017.6 hPa - - - -
1788393904 21.67° C 59% 1017.3 hPa - - - -
1788392104 22.22° C 56% 1017 hPa - - - -
1788390304 22.78° C 56% 1016.9 hPa - - - -
1788388503 22.78° C 55% 1016.6 hPa - - - -
1788386703 23.33° C 55% 1016.4 hPa - - - -
1788384904 23.89° C 55% 1016.1 hPa - - - -
1788383104 25° C 51% 1015.8 hPa - - - -
1788381304 26.11° C 47% 1015.4 hPa - - - -
1788379504 28.33° C 41% 1014.9 hPa - - - -
1788377704 30° C 38% 1014.5 hPa - - - -
1788375903 31.67° C 34% 1014.2 hPa - - - -
1788374103 31.67° C 35% 1014.3 hPa - - - -
1788372304 33.33° C 33% 1014.2 hPa - - - -
1788370504 34.44° C 31% 1014.6 hPa - - - -
1788368704 33.89° C 32% 1014.9 hPa - - - -
1788366904 32.22° C 33% 1015.6 hPa - - - -

* Rain since midnight (hover to see other rain measurements)
** Current wind speed in m/s (hover to see current wind gust speed)